createdAt,value
2019-05-09T00:01:57.963Z,97402.16
2019-05-09T00:04:24.808Z,97400.59
2019-05-09T00:06:51.870Z,97397.73
2019-05-09T00:09:19.746Z,97399.19
2019-05-09T00:11:48.574Z,97400.62
2019-05-09T00:14:15.762Z,97399.60
2019-05-09T00:16:43.907Z,97401.60
2019-05-09T00:19:13.390Z,97394.91
2019-05-09T00:21:43.766Z,97400.02
2019-05-09T00:24:11.227Z,97400.72
2019-05-09T00:26:38.838Z,97402.67
2019-05-09T00:29:13.893Z,97391.78
2019-05-09T00:31:39.525Z,97387.52
2019-05-09T00:34:09.025Z,97389.85
2019-05-09T00:36:36.130Z,97396.14
2019-05-09T00:39:05.012Z,97397.69
2019-05-09T00:41:34.047Z,97391.74
2019-05-09T00:44:15.122Z,97386.94
2019-05-09T00:46:53.608Z,97397.12
2019-05-09T00:49:23.524Z,97393.83
2019-05-09T00:51:50.698Z,97390.15
2019-05-09T00:54:18.390Z,97390.34
2019-05-09T00:56:48.068Z,97386.28
2019-05-09T00:59:15.707Z,97392.70
2019-05-09T01:01:43.677Z,97385.63
2019-05-09T01:04:11.418Z,97376.84
2019-05-09T01:06:39.589Z,97373.33
2019-05-09T01:09:07.344Z,97375.91
2019-05-09T01:11:34.460Z,97372.59
2019-05-09T01:14:03.569Z,97379.70
2019-05-09T01:16:30.797Z,97373.59
2019-05-09T01:18:58.105Z,97380.59
2019-05-09T01:21:25.034Z,97375.50
2019-05-09T01:23:54.718Z,97374.80
2019-05-09T01:26:23.887Z,97372.67
2019-05-09T01:28:50.618Z,97368.38
2019-05-09T01:31:17.591Z,97363.97
2019-05-09T01:33:49.278Z,97361.14
2019-05-09T01:36:16.436Z,97348.58
2019-05-09T01:38:43.454Z,97355.49
2019-05-09T01:41:24.738Z,97356.37
2019-05-09T01:43:39.335Z,97366.80
2019-05-09T01:46:06.326Z,97361.73
2019-05-09T01:48:34.077Z,97364.16
2019-05-09T01:51:03.225Z,97364.93
2019-05-09T01:53:33.470Z,97361.41
2019-05-09T01:56:00.562Z,97367.58
2019-05-09T01:58:30.775Z,97365.86
2019-05-09T02:00:59.164Z,97359.06
2019-05-09T02:03:26.313Z,97362.98
2019-05-09T02:05:53.371Z,97358.28
2019-05-09T02:08:20.370Z,97356.40
2019-05-09T02:10:49.621Z,97352.11
2019-05-09T02:13:16.674Z,97357.19
2019-05-09T02:15:59.173Z,97352.19
2019-05-09T02:18:44.055Z,97358.88
2019-05-09T02:21:14.250Z,97357.42
2019-05-09T02:23:40.192Z,97363.97
2019-05-09T02:26:07.057Z,97356.17
2019-05-09T02:28:34.256Z,97360.39
2019-05-09T02:31:04.726Z,97360.02
2019-05-09T02:33:30.686Z,97358.18
2019-05-09T02:36:01.703Z,97364.37
2019-05-09T02:38:28.746Z,97366.52
2019-05-09T02:40:58.638Z,97360.08
2019-05-09T02:43:25.640Z,97351.65
2019-05-09T02:45:59.542Z,97351.95
2019-05-09T02:48:28.858Z,97347.36
2019-05-09T02:50:55.997Z,97349.13
2019-05-09T02:53:23.547Z,97341.36
2019-05-09T02:55:50.329Z,97343.66
2019-05-09T02:58:20.562Z,97349.05
2019-05-09T03:01:01.642Z,97346.02
2019-05-09T03:03:33.373Z,97352.06
2019-05-09T03:06:00.743Z,97353.56
2019-05-09T03:08:29.598Z,97349.27
2019-05-09T03:10:59.021Z,97351.52
2019-05-09T03:13:28.860Z,97351.41
2019-05-09T03:15:58.627Z,97340.63
2019-05-09T03:18:28.656Z,97342.28
2019-05-09T03:21:09.449Z,97345.92
2019-05-09T03:23:38.899Z,97341.39
2019-05-09T03:26:09.106Z,97347.59
2019-05-09T03:28:38.925Z,97343.09
2019-05-09T03:31:11.355Z,97340.69
2019-05-09T03:33:40.541Z,97348.78
2019-05-09T03:36:07.788Z,97343.71
2019-05-09T03:38:34.916Z,97332.91
2019-05-09T03:41:01.758Z,97331.42
2019-05-09T03:43:29.329Z,97340.39
2019-05-09T03:46:10.270Z,97338.95
2019-05-09T03:48:58.290Z,97333.41
2019-05-09T03:51:27.350Z,97334.64
2019-05-09T03:53:53.976Z,97323.14
2019-05-09T03:56:23.102Z,97317.09
2019-05-09T03:58:50.000Z,97310.37
2019-05-09T04:01:17.579Z,97302.22
2019-05-09T04:03:44.525Z,97294.03
2019-05-09T04:06:11.722Z,97287.23
2019-05-09T04:08:38.582Z,97300.60
2019-05-09T04:11:05.505Z,97296.25
2019-05-09T04:13:34.257Z,97289.94
2019-05-09T04:16:01.538Z,97300.42
2019-05-09T04:18:28.505Z,97297.66
2019-05-09T04:20:57.309Z,97303.20
2019-05-09T04:23:24.271Z,97303.59
2019-05-09T04:26:02.450Z,97304.38
2019-05-09T04:28:29.347Z,97299.70
2019-05-09T04:30:58.124Z,97298.53
2019-05-09T04:33:25.148Z,97287.89
2019-05-09T04:35:52.068Z,97286.72
2019-05-09T04:38:18.858Z,97281.89
2019-05-09T04:40:48.170Z,97289.25
2019-05-09T04:43:19.439Z,97293.38
2019-05-09T04:45:47.794Z,97287.51
2019-05-09T04:48:32.953Z,97291.64
2019-05-09T04:51:04.949Z,97289.11
2019-05-09T04:53:32.997Z,97286.55
2019-05-09T04:56:02.035Z,97288.95
2019-05-09T04:58:29.156Z,97283.16
2019-05-09T05:01:08.006Z,97287.34
2019-05-09T05:03:37.592Z,97286.30
2019-05-09T05:06:04.421Z,97282.42
2019-05-09T05:08:31.329Z,97291.88
2019-05-09T05:10:58.658Z,97283.77
2019-05-09T05:13:27.344Z,97280.67
2019-05-09T05:15:54.347Z,97282.66
2019-05-09T05:18:21.164Z,97282.88
2019-05-09T05:20:50.842Z,97275.48
2019-05-09T05:23:33.320Z,97278.34
2019-05-09T05:26:00.247Z,97283.88
2019-05-09T05:28:27.899Z,97276.08
2019-05-09T05:30:55.380Z,97279.07
2019-05-09T05:33:24.192Z,97273.22
2019-05-09T05:35:52.579Z,97271.34
2019-05-09T05:38:19.476Z,97266.03
2019-05-09T05:40:47.668Z,97271.02
2019-05-09T05:43:17.399Z,97264.55
2019-05-09T05:45:47.931Z,97270.84
2019-05-09T05:48:18.003Z,97267.74
2019-05-09T05:50:44.933Z,97270.91
2019-05-09T05:53:11.728Z,97266.55
2019-05-09T05:55:38.625Z,97263.20
2019-05-09T05:58:05.414Z,97262.20
2019-05-09T06:00:32.245Z,97264.73
2019-05-09T06:02:59.858Z,97266.28
2019-05-09T06:05:27.836Z,97256.40
2019-05-09T06:07:57.471Z,97253.74
2019-05-09T06:10:24.071Z,97253.67
2019-05-09T06:12:50.877Z,97259.97
2019-05-09T06:15:18.357Z,97254.83
2019-05-09T06:17:48.230Z,97260.85
2019-05-09T06:20:17.578Z,97267.97
2019-05-09T06:22:47.495Z,97270.91
2019-05-09T06:25:14.146Z,97267.47
2019-05-09T06:27:42.403Z,97269.62
2019-05-09T06:30:10.153Z,97269.44
2019-05-09T06:32:38.484Z,97261.93
2019-05-09T06:35:08.188Z,97259.02
2019-05-09T06:37:34.900Z,97261.88
2019-05-09T06:40:03.942Z,97254.45
2019-05-09T06:42:33.919Z,97252.66
2019-05-09T06:45:11.983Z,97266.22
2019-05-09T06:47:40.747Z,97262.85
2019-05-09T06:50:09.844Z,97259.83
2019-05-09T06:52:37.598Z,97257.95
2019-05-09T06:55:08.427Z,97260.23
2019-05-09T06:57:38.905Z,97252.81
2019-05-09T07:00:08.466Z,97259.38
2019-05-09T07:02:43.267Z,97263.45
2019-05-09T07:05:21.133Z,97259.75
2019-05-09T07:07:50.240Z,97247.88
2019-05-09T07:10:17.861Z,97248.00
2019-05-09T07:12:44.793Z,97242.23
2019-05-09T07:15:12.359Z,97248.11
2019-05-09T07:17:39.634Z,97245.17
2019-05-09T07:20:08.786Z,97238.30
2019-05-09T07:22:40.345Z,97242.68
2019-05-09T07:25:11.239Z,97239.07
2019-05-09T07:27:39.916Z,97237.50
2019-05-09T07:30:10.878Z,97235.47
2019-05-09T07:32:57.995Z,97234.58
2019-05-09T07:35:25.072Z,97236.73
2019-05-09T07:37:54.550Z,97232.77
2019-05-09T07:40:21.770Z,97235.16
2019-05-09T07:42:48.705Z,97235.93
2019-05-09T07:45:17.890Z,97243.97
2019-05-09T07:47:45.008Z,97247.89
2019-05-09T07:50:15.419Z,97258.96
2019-05-09T07:52:42.347Z,97262.36
2019-05-09T07:55:09.499Z,97263.39
2019-05-09T07:57:45.095Z,97270.08
2019-05-09T08:00:07.811Z,97278.34
2019-05-09T08:02:34.987Z,97284.98
2019-05-09T08:05:04.430Z,97277.49
2019-05-09T08:07:33.194Z,97281.89
2019-05-09T08:10:00.277Z,97292.83
2019-05-09T08:12:28.404Z,97266.39
2019-05-09T08:15:10.419Z,97264.13
2019-05-09T08:17:24.835Z,97253.87
2019-05-09T08:19:52.136Z,97254.75
2019-05-09T08:22:21.221Z,97252.36
2019-05-09T08:24:48.415Z,97242.79
2019-05-09T08:27:17.554Z,97257.56
2019-05-09T08:29:44.460Z,97249.21
2019-05-09T08:32:12.091Z,97243.81
2019-05-09T08:34:39.407Z,97248.67
2019-05-09T08:37:08.376Z,97245.83
2019-05-09T08:39:38.079Z,97240.41
2019-05-09T08:42:04.208Z,97246.28
2019-05-09T08:44:31.575Z,97244.95
2019-05-09T08:46:58.810Z,97239.77
2019-05-09T08:49:28.665Z,97242.42
2019-05-09T08:52:11.982Z,97234.41
2019-05-09T08:54:43.638Z,97234.63
2019-05-09T08:57:10.667Z,97229.34
2019-05-09T08:59:38.275Z,97236.25
2019-05-09T09:02:18.580Z,97233.63
2019-05-09T09:04:38.359Z,97230.14
2019-05-09T09:07:05.441Z,97227.66
2019-05-09T09:09:32.244Z,97224.14
2019-05-09T09:11:58.982Z,97220.20
2019-05-09T09:14:27.914Z,97219.63
2019-05-09T09:16:57.425Z,97214.33
2019-05-09T09:19:28.129Z,97213.18
2019-05-09T09:21:59.596Z,97218.70
2019-05-09T09:24:24.371Z,97206.27
2019-05-09T09:26:51.301Z,97199.69
2019-05-09T09:29:19.769Z,97195.26
2019-05-09T09:31:48.335Z,97198.31
2019-05-09T09:34:18.131Z,97187.89
2019-05-09T09:36:45.394Z,97195.77
2019-05-09T09:39:12.191Z,97188.81
2019-05-09T09:41:39.036Z,97179.00
2019-05-09T09:44:08.567Z,97182.13
2019-05-09T09:46:37.331Z,97179.77
2019-05-09T09:49:04.027Z,97191.58
2019-05-09T09:51:31.426Z,97170.50
2019-05-09T09:54:01.066Z,97176.16
2019-05-09T09:56:28.633Z,97167.76
2019-05-09T09:58:58.197Z,97157.34
2019-05-09T10:01:28.695Z,97156.56
2019-05-09T10:04:15.692Z,97164.33
2019-05-09T10:06:31.204Z,97164.83
2019-05-09T10:08:58.423Z,97144.75
2019-05-09T10:11:25.307Z,97147.28
2019-05-09T10:14:13.907Z,97150.20
2019-05-09T10:16:42.991Z,97149.93
2019-05-09T10:19:15.175Z,97134.44
2019-05-09T10:21:44.314Z,97138.25
2019-05-09T10:24:11.193Z,97143.48
2019-05-09T10:26:40.005Z,97149.19
2019-05-09T10:29:07.091Z,97145.99
2019-05-09T10:31:34.185Z,97148.00
2019-05-09T10:34:01.085Z,97166.42
2019-05-09T10:36:28.413Z,97142.91
2019-05-09T10:38:55.286Z,97146.27
2019-05-09T10:41:24.969Z,97149.34
2019-05-09T10:43:54.358Z,97145.11
2019-05-09T10:46:52.928Z,97155.95
2019-05-09T10:49:12.191Z,97161.28
2019-05-09T10:51:39.275Z,97183.14
2019-05-09T10:54:08.139Z,97178.17
2019-05-09T10:56:35.151Z,97196.14
2019-05-09T10:59:02.289Z,97209.56
2019-05-09T11:01:29.653Z,97208.06
2019-05-09T11:03:58.945Z,97207.87
2019-05-09T11:06:28.783Z,97199.27
2019-05-09T11:08:55.171Z,97184.16
2019-05-09T11:11:21.986Z,97178.03
2019-05-09T11:13:48.897Z,97171.14
2019-05-09T11:16:18.698Z,97178.56
2019-05-09T11:18:47.969Z,97168.64
2019-05-09T11:21:14.258Z,97174.17
2019-05-09T11:23:41.087Z,97170.91
2019-05-09T11:26:07.824Z,97167.97
2019-05-09T11:28:34.605Z,97164.23
2019-05-09T11:31:01.471Z,97169.55
2019-05-09T11:33:28.328Z,97169.19
2019-05-09T11:35:55.100Z,97174.31
2019-05-09T11:38:32.406Z,97179.16
2019-05-09T11:40:50.711Z,97171.38
2019-05-09T11:43:18.243Z,97180.41
2019-05-09T11:45:47.803Z,97182.55
2019-05-09T11:48:14.404Z,97179.08
2019-05-09T11:50:41.553Z,97178.27
2019-05-09T11:53:08.938Z,97173.51
2019-05-09T11:55:42.339Z,97172.27
2019-05-09T11:58:04.527Z,97167.61
2019-05-09T12:00:31.773Z,97165.13
2019-05-09T12:02:58.628Z,97165.70
2019-05-09T12:05:28.563Z,97168.39
2019-05-09T12:07:58.106Z,97158.06
2019-05-09T12:10:25.167Z,97159.86
2019-05-09T12:12:52.463Z,97163.82
2019-05-09T12:15:20.003Z,97171.25
2019-05-09T12:17:57.586Z,97173.69
2019-05-09T12:20:18.222Z,97178.39
2019-05-09T12:22:45.314Z,97177.12
2019-05-09T12:25:13.473Z,97171.88
2019-05-09T12:27:40.211Z,97176.84
2019-05-09T12:30:08.048Z,97176.36
2019-05-09T12:32:34.825Z,97181.31
2019-05-09T12:35:02.519Z,97181.53
2019-05-09T12:37:29.756Z,97189.91
2019-05-09T12:39:58.594Z,97187.89
2019-05-09T12:42:28.491Z,97198.61
2019-05-09T12:44:54.482Z,97195.78
2019-05-09T12:47:21.263Z,97190.34
2019-05-09T12:49:48.887Z,97193.94
2019-05-09T12:52:18.365Z,97195.73
2019-05-09T12:54:44.375Z,97203.20
2019-05-09T12:57:12.757Z,97209.14
2019-05-09T12:59:48.518Z,97211.57
2019-05-09T13:02:08.969Z,97223.00
2019-05-09T13:04:38.207Z,97214.19
2019-05-09T13:07:09.517Z,97210.03
2019-05-09T13:09:38.997Z,97210.63
2019-05-09T13:12:08.639Z,97206.95
2019-05-09T13:14:40.305Z,97212.50
2019-05-09T13:17:13.361Z,97217.48
2019-05-09T13:19:42.554Z,97211.94
2019-05-09T13:22:09.644Z,97217.34
2019-05-09T13:24:38.790Z,97221.60
2019-05-09T13:27:08.219Z,97222.34
2019-05-09T13:29:38.419Z,97225.38
2019-05-09T13:32:08.555Z,97232.25
2019-05-09T13:34:38.184Z,97233.76
2019-05-09T13:37:09.119Z,97224.72
2019-05-09T13:39:41.146Z,97246.28
2019-05-09T13:42:11.058Z,97246.88
2019-05-09T13:44:41.574Z,97244.77
2019-05-09T13:47:11.026Z,97252.34
2019-05-09T13:49:39.760Z,97250.73
2019-05-09T13:52:09.924Z,97261.45
2019-05-09T13:54:38.254Z,97248.45
2019-05-09T13:57:05.517Z,97244.55
2019-05-09T13:59:32.829Z,97241.57
2019-05-09T14:02:01.345Z,97254.64
2019-05-09T14:04:29.385Z,97253.17
2019-05-09T14:07:00.616Z,97254.86
2019-05-09T14:09:29.417Z,97255.08
2019-05-09T14:11:59.005Z,97267.98
2019-05-09T14:14:28.113Z,97270.36
2019-05-09T14:16:55.511Z,97273.74
2019-05-09T14:19:31.686Z,97267.50
2019-05-09T14:21:52.354Z,97262.81
2019-05-09T14:24:19.529Z,97278.22
2019-05-09T14:26:48.025Z,97288.84
2019-05-09T14:29:20.813Z,97279.53
2019-05-09T14:31:55.655Z,97284.44
2019-05-09T14:34:24.130Z,97293.56
2019-05-09T14:36:51.726Z,97297.24
2019-05-09T14:39:20.059Z,97296.25
2019-05-09T14:41:47.370Z,97313.05
2019-05-09T14:44:14.557Z,97316.91
2019-05-09T14:46:43.709Z,97320.00
2019-05-09T14:49:12.096Z,97326.69
2019-05-09T14:51:39.074Z,97332.08
2019-05-09T14:54:08.317Z,97319.43
2019-05-09T14:56:41.914Z,97325.64
2019-05-09T14:59:09.728Z,97339.02
2019-05-09T15:01:39.028Z,97333.72
2019-05-09T15:04:08.791Z,97341.28
2019-05-09T15:06:34.866Z,97346.84
2019-05-09T15:09:03.420Z,97347.39
2019-05-09T15:11:31.260Z,97370.83
2019-05-09T15:13:59.357Z,97354.52
2019-05-09T15:16:31.782Z,97352.80
2019-05-09T15:18:58.646Z,97348.17
2019-05-09T15:21:27.866Z,97357.91
2019-05-09T15:23:59.148Z,97360.45
2019-05-09T15:26:27.540Z,97359.43
2019-05-09T15:28:57.833Z,97358.84
2019-05-09T15:31:28.690Z,97363.95
2019-05-09T15:33:55.878Z,97375.05
2019-05-09T15:36:23.821Z,97374.36
2019-05-09T15:38:51.601Z,97376.74
2019-05-09T15:41:20.289Z,97376.89
2019-05-09T15:43:48.774Z,97380.30
2019-05-09T15:46:20.732Z,97398.30
2019-05-09T15:48:47.614Z,97395.14
2019-05-09T15:51:14.677Z,97402.19
2019-05-09T15:53:41.876Z,97408.45
2019-05-09T15:56:09.400Z,97410.77
2019-05-09T15:58:38.494Z,97413.38
2019-05-09T16:01:07.948Z,97422.78
2019-05-09T16:03:34.974Z,97408.86
2019-05-09T16:06:02.639Z,97423.81
2019-05-09T16:08:29.789Z,97416.44
2019-05-09T16:10:58.086Z,97413.03
2019-05-09T16:13:25.213Z,97412.69
2019-05-09T16:15:57.204Z,97408.98
2019-05-09T16:18:24.673Z,97428.91
2019-05-09T16:20:52.589Z,97430.70
2019-05-09T16:23:19.900Z,97418.91
2019-05-09T16:25:50.176Z,97412.64
2019-05-09T16:28:18.579Z,97432.23
2019-05-09T16:30:48.202Z,97436.76
2019-05-09T16:33:14.850Z,97452.48
2019-05-09T16:35:42.202Z,97463.95
2019-05-09T16:38:10.932Z,97462.14
2019-05-09T16:40:39.655Z,97465.88
2019-05-09T16:43:09.045Z,97474.18
2019-05-09T16:45:37.900Z,97478.27
2019-05-09T16:48:11.071Z,97476.46
2019-05-09T16:50:34.696Z,97480.86
2019-05-09T16:53:01.969Z,97491.64
2019-05-09T16:55:31.419Z,97478.05
2019-05-09T16:58:00.530Z,97493.23
2019-05-09T17:00:38.817Z,97485.30
2019-05-09T17:03:08.017Z,97496.27
2019-05-09T17:05:37.306Z,97492.66
2019-05-09T17:08:10.302Z,97494.14
2019-05-09T17:10:37.874Z,97499.35
2019-05-09T17:13:07.653Z,97499.20
2019-05-09T17:15:34.695Z,97507.70
2019-05-09T17:18:01.746Z,97512.00
2019-05-09T17:20:33.222Z,97509.16
2019-05-09T17:23:15.063Z,97507.57
2019-05-09T17:25:48.032Z,97513.91
2019-05-09T17:28:17.669Z,97526.05
2019-05-09T17:30:44.369Z,97530.34
2019-05-09T17:33:11.255Z,97527.73
2019-05-09T17:35:38.718Z,97534.39
2019-05-09T17:38:08.384Z,97528.95
2019-05-09T17:40:35.321Z,97533.26
2019-05-09T17:43:02.371Z,97534.75
2019-05-09T17:45:31.975Z,97542.77
2019-05-09T17:47:58.893Z,97551.59
2019-05-09T17:50:27.812Z,97551.50
2019-05-09T17:52:54.710Z,97557.48
2019-05-09T17:55:22.115Z,97562.69
2019-05-09T17:57:49.324Z,97562.23
2019-05-09T18:00:21.638Z,97573.68
2019-05-09T18:02:48.438Z,97572.33
2019-05-09T18:05:16.748Z,97576.72
2019-05-09T18:07:43.508Z,97579.44
2019-05-09T18:10:12.197Z,97589.30
2019-05-09T18:12:40.031Z,97588.39
2019-05-09T18:15:09.865Z,97592.34
2019-05-09T18:17:38.314Z,97598.66
2019-05-09T18:20:08.093Z,97604.54
2019-05-09T18:22:35.763Z,97609.19
2019-05-09T18:25:03.798Z,97611.01
2019-05-09T18:27:31.611Z,97617.45
2019-05-09T18:29:59.020Z,97613.38
2019-05-09T18:32:29.492Z,97613.51
2019-05-09T18:35:08.055Z,97619.49
2019-05-09T18:37:37.243Z,97619.48
2019-05-09T18:40:05.730Z,97620.95
2019-05-09T18:42:32.605Z,97631.25
2019-05-09T18:45:00.014Z,97625.81
2019-05-09T18:47:27.926Z,97635.55
2019-05-09T18:49:55.115Z,97633.18
2019-05-09T18:52:22.081Z,97635.31
2019-05-09T18:54:49.108Z,97639.30
2019-05-09T18:57:16.081Z,97641.78
2019-05-09T18:59:43.533Z,97646.41
2019-05-09T19:02:10.281Z,97657.94
2019-05-09T19:04:37.125Z,97663.05
2019-05-09T19:07:04.216Z,97670.39
2019-05-09T19:09:31.698Z,97670.08
2019-05-09T19:12:00.773Z,97675.38
2019-05-09T19:14:28.240Z,97681.28
2019-05-09T19:17:14.304Z,97681.73
2019-05-09T19:19:59.780Z,97693.50
2019-05-09T19:22:26.925Z,97697.11
2019-05-09T19:24:53.840Z,97695.98
2019-05-09T19:27:20.695Z,97706.63
2019-05-09T19:29:47.482Z,97708.56
2019-05-09T19:32:17.576Z,97713.77
2019-05-09T19:34:44.761Z,97715.44
2019-05-09T19:37:11.932Z,97722.80
2019-05-09T19:39:38.995Z,97724.48
2019-05-09T19:42:06.131Z,97723.70
2019-05-09T19:44:33.431Z,97732.63
2019-05-09T19:47:01.757Z,97735.34
2019-05-09T19:49:28.907Z,97730.81
2019-05-09T19:51:57.246Z,97735.78
2019-05-09T19:54:25.448Z,97740.98
2019-05-09T19:56:52.533Z,97737.25
2019-05-09T19:59:19.749Z,97742.11
2019-05-09T20:01:48.398Z,97746.64
2019-05-09T20:04:15.354Z,97755.60
2019-05-09T20:06:42.259Z,97763.28
2019-05-09T20:09:11.016Z,97764.95
2019-05-09T20:11:48.476Z,97764.95
2019-05-09T20:14:20.294Z,97768.56
2019-05-09T20:16:55.575Z,97770.59
2019-05-09T20:19:21.422Z,97763.80
2019-05-09T20:21:48.887Z,97769.70
2019-05-09T20:24:17.767Z,97764.38
2019-05-09T20:26:44.847Z,97769.58
2019-05-09T20:29:11.609Z,97772.84
2019-05-09T20:31:39.417Z,97769.42
2019-05-09T20:34:06.564Z,97778.70
2019-05-09T20:36:34.064Z,97780.75
2019-05-09T20:39:02.017Z,97779.39
2019-05-09T20:41:29.378Z,97787.22
2019-05-09T20:43:56.393Z,97791.84
2019-05-09T20:46:24.263Z,97794.25
2019-05-09T20:48:51.368Z,97796.15
2019-05-09T20:51:18.766Z,97806.59
2019-05-09T20:53:48.007Z,97815.20
2019-05-09T20:56:17.169Z,97807.16
2019-05-09T20:58:44.753Z,97818.58
2019-05-09T21:01:11.616Z,97818.34
2019-05-09T21:03:40.349Z,97828.97
2019-05-09T21:06:09.084Z,97823.54
2019-05-09T21:08:36.964Z,97833.05
2019-05-09T21:11:05.099Z,97835.21
2019-05-09T21:13:47.514Z,97839.17
2019-05-09T21:16:03.983Z,97840.45
2019-05-09T21:18:37.056Z,97844.64
2019-05-09T21:21:05.153Z,97850.08
2019-05-09T21:23:32.127Z,97846.89
2019-05-09T21:25:59.079Z,97849.61
2019-05-09T21:28:26.050Z,97862.95
2019-05-09T21:30:53.268Z,97864.19
2019-05-09T21:33:22.668Z,97872.30
2019-05-09T21:35:51.300Z,97865.23
2019-05-09T21:38:21.620Z,97863.90
2019-05-09T21:40:48.511Z,97871.42
2019-05-09T21:43:17.865Z,97867.06
2019-05-09T21:45:47.076Z,97868.70
2019-05-09T21:48:13.980Z,97865.05
2019-05-09T21:50:41.124Z,97871.02
2019-05-09T21:53:08.420Z,97875.44
2019-05-09T21:55:35.281Z,97875.27
2019-05-09T21:58:02.541Z,97878.16
2019-05-09T22:00:35.939Z,97892.85
2019-05-09T22:03:04.614Z,97885.94
2019-05-09T22:05:31.860Z,97893.90
2019-05-09T22:07:59.291Z,97898.44
2019-05-09T22:10:27.465Z,97900.81
2019-05-09T22:12:54.280Z,97901.86
2019-05-09T22:15:21.555Z,97899.86
2019-05-09T22:17:48.735Z,97898.97
2019-05-09T22:20:16.026Z,97898.56
2019-05-09T22:22:43.435Z,97903.64
2019-05-09T22:25:11.070Z,97903.88
2019-05-09T22:27:37.907Z,97918.27
2019-05-09T22:30:13.588Z,97915.31
2019-05-09T22:32:41.448Z,97911.55
2019-05-09T22:35:09.467Z,97920.50
2019-05-09T22:37:39.035Z,97915.39
2019-05-09T22:40:07.820Z,97920.34
2019-05-09T22:42:34.889Z,97919.87
2019-05-09T22:45:03.911Z,97915.02
2019-05-09T22:47:30.716Z,97924.28
2019-05-09T22:49:57.699Z,97924.05
2019-05-09T22:52:24.699Z,97918.92
2019-05-09T22:54:51.701Z,97924.22
2019-05-09T22:57:18.583Z,97932.02
2019-05-09T22:59:45.624Z,97928.19
2019-05-09T23:02:13.091Z,97931.95
2019-05-09T23:04:40.028Z,97936.09
2019-05-09T23:07:07.008Z,97941.04
2019-05-09T23:09:36.640Z,97941.85
2019-05-09T23:12:03.726Z,97939.38
2019-05-09T23:14:30.984Z,97941.20
2019-05-09T23:17:03.524Z,97940.39
2019-05-09T23:19:30.660Z,97939.61
2019-05-09T23:21:57.542Z,97941.44
2019-05-09T23:24:35.662Z,97947.58
2019-05-09T23:27:02.964Z,97948.36
2019-05-09T23:29:29.906Z,97953.55
2019-05-09T23:32:03.160Z,97953.01
2019-05-09T23:34:30.056Z,97949.64
2019-05-09T23:36:57.024Z,97951.00
2019-05-09T23:39:26.428Z,97952.02
2019-05-09T23:41:53.598Z,97957.38
2019-05-09T23:44:20.522Z,97950.36
2019-05-09T23:46:48.011Z,97960.09
2019-05-09T23:49:15.184Z,97947.64
2019-05-09T23:51:50.986Z,97952.26
2019-05-09T23:54:47.874Z,97959.92
2019-05-09T23:57:27.458Z,97948.84
